Printer image icon. Send To Printer
           
                RAOB DATA MANUAL QUALITY CONTROL (QC) REPORT
                                  MEXICAN
                       From 20150301 through 20150331

 ___DATE___ HOUR REASN DETAILS...

76225/CUU
   20150305  12Z 10155 10155.

1 record found

76256/GYM
   20150303  12Z 10158 10158
   20150304  12Z 10158 10158
   20150307  12Z 10158 10158.
   20150308  12Z 10158 10158.
   20150311  12Z 10158 10158...Flight equipment failure
   20150316  12Z 10158 10158; Flight equip problems..
   20150319  12Z 10158 10158; Flight equip problem.
   20150320  12Z 10158 10158...Flight equipment failure
   20150323  12Z 10158 10158.
   20150324  12Z 10158 10158.

10 records found

76405/LAP
   20150326  12Z 10159 10159

1 record found

76458/MZT
   20150301  00Z 10142 10142; ground equip problem.
   20150301  12Z 10142 10142
   20150302  00Z 10142 10142; Ground equip problem..
   20150302  12Z 10142 10142
   20150303  00Z 10142 10142...Ground equipment failure
   20150303  12Z 10142 10142
   20150304  00Z 10142 10142...Ground equipment failure
   20150304  12Z 10142 10142
   20150305  00Z 10142 10142...Ground equipment failure
   20150305  12Z 10142 10142
   20150306  00Z 10158 10158
   20150307  12Z 10142 10142.
   20150308  00Z 10142 10142
   20150308  12Z 10142 10142.
   20150309  00Z 10158 10158
   20150309  12Z 10142 10142...Ground equipment failure
   20150310  00Z 10142 10142; Ground equip problem.
   20150310  12Z 10142 10142...Ground equipment failure
   20150311  00Z 10142 10142; Ground equip problem..
   20150311  12Z 10142 10142...Ground equipment failure
   20150312  00Z 10142 10142; ground equip problem.
   20150312  12Z 10142 10142
   20150313  00Z 10142 10142...Ground equipment failure
   20150313  12Z 10142 10142
   20150314  00Z 10142 10142...Ground equipment failure
   20150314  12Z 10142 10142
   20150315  00Z 10142 10142.
   20150315  12Z 10142 10142
   20150316  00Z 10142 10142.
   20150316  12Z 10142 10142; Ground equip problems..
   20150317  00Z 10142 10142...ground equipment failure
   20150317  12Z 10142 10142; Ground equip problem..
   20150318  00Z 10142 10142
   20150318  12Z 10142 10142...ground equipment failure
   20150319  00Z 10142 10142
   20150319  12Z 10142 10142; Ground equip problem.
   20150320  12Z 10142 10142...Ground equipment failure
   20150321  12Z 10142 10142...Ground equipment failure
   20150322  00Z 10142 10142
   20150322  12Z 10142 10142...Ground equipment failure
   20150323  00Z 10142 10142
   20150323  12Z 10142 10142.
   20150324  00Z 10142 10142
   20150324  12Z 10142 10142.
   20150325  00Z 10142 10142
   20150325  12Z 10142 10142.
   20150326  00Z 10142 10142
   20150326  12Z 10142 10142...ground equipment failure
   20150327  00Z 10142 Ground equipment failure...10142
   20150328  00Z 10158 10158
   20150329  00Z 10158 10158...Flight equipment failure
   20150330  00Z 10158 10158...Flight equipment failure

52 records found

76526/ZAC
   20150321  12Z DELET Purged all hgts/temps...baseline error
                 BASEL
   20150322  12Z DELET Purged all hgts/temps...baseline error
                 BASEL
   20150328  12Z DELET Purge hgts/temps/humidity 1000mb and up...low and erratic
                       temp

3 records found

76595/CUN
   20150308  12Z 10140 10140.
   20150320  12Z 10144 10144...Power failure
   20150322  12Z 10140 10140...Report not filed

3 records found

76612/GDL
   20150310  12Z 10156 10156...Weak signal
   20150327  12Z 10157 10157; Preventative maintenance..

2 records found

76644/MID
   20150303  12Z DELET Purged all hgts/temps...portions high/warm

1 record found

76654/MZL
   20150301  00Z 10158 10158; flight equip problem.
   20150302  00Z 10158 10158; Flight equip problem..
   20150304  00Z 10158 10158...Flight equipment failure
   20150304  12Z DELET Purged all hgts/temps...high/warm
   20150305  00Z 10158 10158...Flight equipment failure
   20150306  00Z 10158 10158
   20150307  00Z 10158 10158
   20150308  00Z 10158 10158
   20150309  00Z 10158 10158
   20150310  00Z 10158 10158; Flight equip problem.
   20150311  00Z 10158 10158; Flight equip problem..
   20150312  00Z 10158 10158; Flight equip problem.
   20150313  00Z 10158 10158...Flight equipment failure
   20150314  00Z 10158 10158...Flight equipment failure
   20150315  00Z 10158 10158.
   20150316  12Z DELET Purge temps and humidity; 1005 to 972mb, 682 to 661mb, 181 to
                       152mb and 148mb. Wet bulb effect and erratic.
   20150317  00Z 10158 10158...flight equipment failure
   20150319  00Z 10158 10158
   20150319  12Z 10142 10142; Ground equip problem.
   20150321  00Z 10142 10142; Ground equip problem..
   20150322  00Z 10158 10158
   20150324  00Z 10158 10158
   20150325  00Z 10158 10158
   20150326  00Z 10158 10158
   20150326  12Z DELET Purged temp/rh 959-924 mb...super-adiabatic
   20150329  00Z 10158 10158...Flight equipment failure
   20150330  00Z 10158 10158...Flight equipment failure
   20150331  00Z 10158 10158...flight equipment failure

28 records found

76679/MEX
   20150301  00Z DELET Purge temps and humidity 773 to 500mb wet bulb effect.
   20150302  12Z DELET Purged all hgts/temps...high/warm
   20150305  00Z DELET Purged all hgts/temps...portions high/warm
   20150308  00Z DELET Purged all temps...too warm
   20150310  00Z DELET Purge hts 700mb up high..
   20150320  00Z DELET Purged all temps...too warm
   20150322  00Z DELET Purged all hgts/temps...high/warm
   20150322  12Z DELET Purged all hgts/temps...baseline error
                 BASEL
   20150325  00Z DELET Purged all temps...too warm
   20150327  00Z DELET Purged all temps...too warm

10 records found

76692/HYY
   20150327  00Z 10144 Power failure...10144
   20150331  00Z DELET Purged hgt/temp/rh all levels...spurious

2 records found

76805/ACA
   20150311  12Z 10158 10158...Flight equipment failure
   20150312  12Z 10158 10158
   20150318  12Z 10142 10142...ground equipment failure
   20150319  12Z 10158 10158; Flight equip problem.
   20150325  12Z 10158 10158.
   20150326  12Z 10158 10158...flight equipment failure
   20150327  12Z 10158 10158; Flight equip problems.
   20150328  12Z 10158 10158...flight equip problem
   20150329  00Z 10158 10158...Flight equipment failure

9 records found



SELECTED STATIONS WITH NO SDM QC:
  76394/MTY  76743/VHA  76903/TAP




This and related reports are available on the Web at . . .
http://www.nco.ncep.noaa.gov/sib/qap/raobqc/